Time;durP1;ratioP1;P1;durP2;ratioP2;P2;SDS_P1;SDS_P2;PMS_P1;PMS_P2;Temp;Humidity;BMP_temperature;BMP_pressure;BME280_temperature;BME280_humidity;BME280_pressure;Samples;Min_cycle;Max_cycle;Signal;HPM_P1;HPM_P2
2022/04/14 00:01:33;;;;;;;24.65;14.00;;;13.30;99.90;;;;;;5050433;28;20079;-75
2022/04/14 00:03:59;;;;;;;20.42;13.32;;;13.30;99.90;;;;;;5065038;28;20037;-74
2022/04/14 00:06:24;;;;;;;21.17;13.48;;;13.30;99.90;;;;;;5039973;28;20467;-74
2022/04/14 00:08:54;;;;;;;22.67;13.43;;;13.30;99.90;;;;;;5061380;28;20028;-75
2022/04/14 00:11:20;;;;;;;21.55;13.07;;;13.30;99.90;;;;;;5048256;28;20052;-76
2022/04/14 00:13:45;;;;;;;22.70;12.80;;;13.30;99.90;;;;;;5057746;28;20058;-75
2022/04/14 00:16:11;;;;;;;22.73;13.05;;;13.20;99.90;;;;;;5062393;28;20514;-75
2022/04/14 00:18:37;;;;;;;24.58;11.90;;;13.20;99.90;;;;;;5062370;28;20051;-76
2022/04/14 00:21:02;;;;;;;18.38;11.32;;;13.20;99.90;;;;;;5009951;28;20041;-74
2022/04/14 00:23:28;;;;;;;19.40;11.40;;;13.20;99.90;;;;;;5051783;28;20059;-74
2022/04/14 00:25:53;;;;;;;15.77;10.35;;;13.20;99.90;;;;;;5058642;28;20033;-75
2022/04/14 00:28:19;;;;;;;16.33;9.95;;;13.20;99.90;;;;;;5047554;28;20030;-74
2022/04/14 00:30:45;;;;;;;14.40;9.32;;;13.20;99.90;;;;;;5065277;28;20074;-74
2022/04/14 00:33:10;;;;;;;17.88;10.50;;;13.20;99.90;;;;;;5044638;28;20082;-74
2022/04/14 00:35:36;;;;;;;16.38;9.30;;;13.20;99.90;;;;;;5047575;28;20025;-74
2022/04/14 00:38:01;;;;;;;18.90;10.05;;;13.30;99.90;;;;;;5059865;28;20040;-74
2022/04/14 00:40:27;;;;;;;20.38;11.10;;;13.20;99.90;;;;;;5061404;28;20108;-75
2022/04/14 00:42:53;;;;;;;18.50;10.45;;;13.10;99.90;;;;;;5029926;28;20123;-74
2022/04/14 00:45:18;;;;;;;18.23;10.70;;;13.10;99.90;;;;;;5065950;28;20070;-75
2022/04/14 00:47:44;;;;;;;19.73;11.30;;;13.20;99.90;;;;;;5060487;28;20049;-73
2022/04/14 00:50:10;;;;;;;20.77;11.15;;;13.20;99.90;;;;;;5048291;28;20033;-74
2022/04/14 00:52:44;;;;;;;18.08;11.45;;;13.20;99.90;;;;;;5049480;28;20029;-75
2022/04/14 00:55:09;;;;;;;18.80;10.95;;;13.20;99.90;;;;;;5049497;28;20025;-75
2022/04/14 00:57:35;;;;;;;23.35;11.55;;;13.20;99.90;;;;;;5064779;28;20107;-75
2022/04/14 01:00:01;;;;;;;17.65;11.00;;;13.30;99.90;;;;;;5067014;28;20043;-75
2022/04/14 01:02:26;;;;;;;19.77;11.57;;;13.40;99.90;;;;;;5048456;28;20024;-75
2022/04/14 01:04:52;;;;;;;22.90;11.40;;;13.40;99.90;;;;;;5025306;28;20120;-75
2022/04/14 01:07:18;;;;;;;19.63;12.55;;;13.30;99.90;;;;;;5048936;28;20448;-76
2022/04/14 01:09:46;;;;;;;21.00;11.93;;;13.30;99.90;;;;;;5038370;28;20036;-75
2022/04/14 01:12:12;;;;;;;21.00;12.50;;;13.30;99.90;;;;;;5062844;28;20036;-75
2022/04/14 01:14:38;;;;;;;24.23;11.68;;;13.30;99.90;;;;;;5067163;28;20040;-74
2022/04/14 01:17:08;;;;;;;18.55;11.50;;;13.30;99.90;;;;;;5066118;28;20036;-75
2022/04/14 01:19:35;;;;;;;17.75;11.63;;;13.20;99.90;;;;;;5046658;28;20104;-75
2022/04/14 01:22:08;;;;;;;21.55;10.95;;;13.20;99.90;;;;;;5046179;28;20024;-76
2022/04/14 01:24:35;;;;;;;22.25;12.10;;;13.20;99.90;;;;;;5063641;28;20082;-75
2022/04/14 01:27:01;;;;;;;19.00;10.38;;;13.30;99.90;;;;;;5064872;28;20108;-75
2022/04/14 01:29:28;;;;;;;15.77;10.02;;;13.30;99.90;;;;;;5061198;28;20480;-75
2022/04/14 01:31:57;;;;;;;18.67;8.70;;;13.20;99.90;;;;;;5055395;28;20032;-75
2022/04/14 01:34:22;;;;;;;17.83;8.77;;;13.20;99.90;;;;;;5064311;28;20025;-75
2022/04/14 01:36:48;;;;;;;20.63;9.75;;;13.20;99.90;;;;;;5049270;28;20040;-75
2022/04/14 01:39:14;;;;;;;16.02;8.98;;;13.20;99.90;;;;;;5047446;28;20562;-75
2022/04/14 01:41:41;;;;;;;12.98;7.85;;;13.10;99.90;;;;;;5048022;28;20053;-75
2022/04/14 01:44:08;;;;;;;16.73;8.85;;;13.10;99.90;;;;;;5049180;28;20510;-75
2022/04/14 01:46:34;;;;;;;17.67;9.25;;;13.10;99.90;;;;;;5047991;28;21333;-74
2022/04/14 01:49:00;;;;;;;17.88;10.38;;;13.10;99.90;;;;;;5047722;28;20102;-76
2022/04/14 01:51:27;;;;;;;15.90;9.77;;;13.10;99.90;;;;;;5055341;28;20492;-76
2022/04/14 01:53:53;;;;;;;16.20;10.10;;;13.00;99.90;;;;;;5064996;28;20111;-76
2022/04/14 01:56:19;;;;;;;17.85;10.48;;;13.10;99.90;;;;;;5046775;28;20104;-75
2022/04/14 01:58:45;;;;;;;17.10;11.55;;;12.90;99.90;;;;;;5039155;28;20417;-75
2022/04/14 02:01:11;;;;;;;20.58;11.10;;;12.90;99.90;;;;;;5037375;28;20028;-74
2022/04/14 02:03:36;;;;;;;20.42;11.25;;;12.90;99.90;;;;;;5052111;28;20071;-74
2022/04/14 02:06:03;;;;;;;17.48;11.25;;;12.90;99.90;;;;;;5053013;28;20047;-74
2022/04/14 02:08:28;;;;;;;20.23;11.73;;;12.90;99.90;;;;;;5067020;28;20456;-74
2022/04/14 02:10:54;;;;;;;22.02;12.27;;;12.90;99.90;;;;;;5039414;28;20035;-74
2022/04/14 02:13:19;;;;;;;19.85;11.75;;;13.00;99.90;;;;;;5052568;28;20118;-75
2022/04/14 02:15:45;;;;;;;21.42;12.60;;;13.00;99.90;;;;;;5069777;28;20046;-75
2022/04/14 02:18:11;;;;;;;24.98;13.50;;;13.00;99.90;;;;;;5049683;28;20029;-74
2022/04/14 02:20:36;;;;;;;21.75;13.05;;;13.00;99.90;;;;;;5068989;28;20060;-74
2022/04/14 02:23:02;;;;;;;22.30;13.70;;;13.00;99.90;;;;;;5051646;28;20117;-75
2022/04/14 02:25:27;;;;;;;28.80;14.93;;;13.00;99.90;;;;;;5051872;28;20098;-74
2022/04/14 02:27:53;;;;;;;26.52;15.48;;;12.90;99.90;;;;;;5066821;28;20032;-74
2022/04/14 02:30:19;;;;;;;22.10;12.93;;;12.90;99.90;;;;;;5067569;28;20024;-76
2022/04/14 02:32:44;;;;;;;20.60;12.95;;;12.90;99.90;;;;;;5029465;28;20060;-75
2022/04/14 02:35:10;;;;;;;23.23;14.60;;;12.90;99.90;;;;;;5035227;28;20025;-74
2022/04/14 02:37:36;;;;;;;22.95;14.65;;;12.90;99.90;;;;;;5068493;28;20032;-74
2022/04/14 02:40:02;;;;;;;26.00;14.10;;;12.90;99.90;;;;;;5065492;28;20033;-76
2022/04/14 02:42:28;;;;;;;20.20;12.98;;;12.90;99.90;;;;;;5068527;28;20094;-75
2022/04/14 02:44:54;;;;;;;24.85;13.85;;;12.90;99.90;;;;;;5042059;28;20037;-76
2022/04/14 02:47:19;;;;;;;27.15;15.30;;;12.90;99.90;;;;;;5051414;28;20048;-75
2022/04/14 02:49:45;;;;;;;24.70;14.93;;;12.90;99.90;;;;;;5065097;28;20029;-75
2022/04/14 02:52:11;;;;;;;26.20;15.52;;;12.90;99.90;;;;;;5069792;28;20531;-75
2022/04/14 02:54:39;;;;;;;26.92;15.40;;;12.90;99.90;;;;;;5034218;28;20089;-76
2022/04/14 02:57:05;;;;;;;22.75;15.07;;;12.90;99.90;;;;;;5050612;28;20107;-75
2022/04/14 02:59:31;;;;;;;27.58;16.33;;;12.90;99.90;;;;;;5035123;28;20044;-75
2022/04/14 03:01:57;;;;;;;23.08;15.02;;;12.90;99.90;;;;;;5069346;28;20035;-74
2022/04/14 03:04:22;;;;;;;24.88;15.85;;;12.80;99.90;;;;;;5052643;28;20101;-74
2022/04/14 03:06:48;;;;;;;29.98;17.08;;;12.80;99.90;;;;;;5069622;28;20029;-73
2022/04/14 03:09:14;;;;;;;30.88;16.02;;;12.80;99.90;;;;;;5049571;28;20079;-75
2022/04/14 03:11:39;;;;;;;26.05;16.73;;;12.80;99.90;;;;;;5025698;28;20021;-74
2022/04/14 03:14:06;;;;;;;27.50;16.80;;;12.80;99.90;;;;;;5065483;28;20100;-75
2022/04/14 03:16:31;;;;;;;27.95;17.45;;;12.80;99.90;;;;;;5065265;28;20056;-75
2022/04/14 03:18:57;;;;;;;26.33;16.05;;;12.90;99.90;;;;;;5059829;28;20060;-74
2022/04/14 03:21:23;;;;;;;30.25;17.38;;;12.80;99.90;;;;;;5051773;28;20093;-74
2022/04/14 03:23:49;;;;;;;29.17;17.48;;;12.80;99.90;;;;;;5043894;28;20025;-75
2022/04/14 03:26:15;;;;;;;29.88;17.67;;;12.80;99.90;;;;;;5043491;28;20413;-75
2022/04/14 03:28:40;;;;;;;28.33;15.88;;;12.80;99.90;;;;;;5058553;28;20140;-76
2022/04/14 03:31:06;;;;;;;29.95;17.15;;;12.80;99.90;;;;;;5061750;28;20409;-74
2022/04/14 03:33:32;;;;;;;27.75;16.33;;;12.80;99.90;;;;;;5047964;28;20044;-75
2022/04/14 03:35:58;;;;;;;24.52;15.80;;;12.80;99.90;;;;;;5050470;28;20060;-75
2022/04/14 03:38:24;;;;;;;29.98;17.50;;;12.80;99.90;;;;;;5049517;28;20465;-75
2022/04/14 03:40:50;;;;;;;27.73;16.90;;;12.80;99.90;;;;;;5063414;28;20514;-76
2022/04/14 03:43:16;;;;;;;30.88;18.52;;;12.80;99.90;;;;;;5065014;28;20036;-74
2022/04/14 03:45:42;;;;;;;31.13;17.30;;;12.80;99.90;;;;;;5063474;28;20463;-76
2022/04/14 03:48:08;;;;;;;29.88;16.90;;;12.70;99.90;;;;;;5040699;28;20132;-75
2022/04/14 03:50:34;;;;;;;26.48;16.92;;;12.70;99.90;;;;;;5057622;28;20097;-75
2022/04/14 03:53:00;;;;;;;26.98;15.43;;;12.70;99.90;;;;;;5055324;28;20519;-75
2022/04/14 03:55:25;;;;;;;29.08;15.80;;;12.70;99.90;;;;;;5065085;28;20017;-75
2022/04/14 03:57:51;;;;;;;26.42;16.83;;;12.70;99.90;;;;;;5061102;28;20032;-75
2022/04/14 04:00:17;;;;;;;30.60;17.63;;;12.80;99.90;;;;;;5051294;28;20036;-75
2022/04/14 04:02:43;;;;;;;29.95;17.80;;;12.80;99.90;;;;;;5044411;28;20033;-75
2022/04/14 04:05:09;;;;;;;34.28;18.77;;;12.80;99.90;;;;;;5050109;28;20654;-74
2022/04/14 04:07:34;;;;;;;28.45;17.50;;;12.70;99.90;;;;;;5057158;28;20036;-76
2022/04/14 04:10:00;;;;;;;29.50;17.73;;;12.60;99.90;;;;;;5068130;28;20032;-75
2022/04/14 04:12:26;;;;;;;33.03;18.70;;;12.60;99.90;;;;;;5067156;28;20028;-75
2022/04/14 04:14:51;;;;;;;29.95;16.77;;;12.60;99.90;;;;;;5066765;28;20032;-75
2022/04/14 04:17:17;;;;;;;28.13;16.27;;;12.70;99.90;;;;;;5060848;28;20045;-74
2022/04/14 04:19:43;;;;;;;30.83;17.75;;;12.70;99.90;;;;;;5058123;28;20960;-74
2022/04/14 04:22:10;;;;;;;29.40;15.88;;;12.60;99.90;;;;;;5065511;28;20111;-75
2022/04/14 04:24:36;;;;;;;26.65;15.68;;;12.60;99.90;;;;;;5049387;28;20090;-74
2022/04/14 04:27:03;;;;;;;30.73;18.02;;;12.70;99.90;;;;;;5061678;28;20081;-75
2022/04/14 04:29:28;;;;;;;31.20;17.23;;;12.70;99.90;;;;;;5049557;28;20123;-75
2022/04/14 04:31:55;;;;;;;29.90;17.15;;;12.60;99.90;;;;;;5034670;28;20166;-75
2022/04/14 04:34:22;;;;;;;28.85;17.55;;;12.70;99.90;;;;;;5080527;28;20035;-74
2022/04/14 04:36:48;;;;;;;30.60;17.83;;;12.70;99.90;;;;;;5065829;28;20108;-75
2022/04/14 04:39:13;;;;;;;31.27;18.05;;;12.70;99.90;;;;;;5065248;28;20488;-76
2022/04/14 04:41:39;;;;;;;29.75;17.15;;;12.70;99.90;;;;;;5050749;28;20039;-75
2022/04/14 04:44:05;;;;;;;29.63;18.35;;;12.60;99.90;;;;;;5065476;28;20029;-75
2022/04/14 04:46:31;;;;;;;29.33;18.83;;;12.70;99.90;;;;;;5047803;28;20565;-76
2022/04/14 04:48:57;;;;;;;27.77;19.27;;;12.70;99.90;;;;;;5034456;28;20036;-74
2022/04/14 04:51:24;;;;;;;31.50;18.98;;;12.70;99.90;;;;;;5050429;28;20340;-75
2022/04/14 04:53:51;;;;;;;32.35;20.33;;;12.80;99.90;;;;;;5064883;28;20029;-78
2022/04/14 04:56:18;;;;;;;31.85;19.55;;;12.90;99.90;;;;;;5042670;28;20024;-74
2022/04/14 04:58:44;;;;;;;33.05;18.88;;;12.80;99.90;;;;;;5051101;28;20040;-76
2022/04/14 05:01:10;;;;;;;37.78;20.83;;;12.80;99.90;;;;;;5039805;28;20033;-74
2022/04/14 05:03:35;;;;;;;38.25;21.00;;;12.70;99.90;;;;;;5070556;28;20039;-76
2022/04/14 05:06:01;;;;;;;38.92;21.13;;;12.80;99.90;;;;;;5042483;28;20036;-75
2022/04/14 05:08:27;;;;;;;36.88;21.35;;;12.80;99.90;;;;;;5048938;28;20021;-74
2022/04/14 05:10:53;;;;;;;38.17;21.73;;;12.70;99.90;;;;;;5051242;28;20396;-77
2022/04/14 05:13:19;;;;;;;34.60;21.35;;;12.60;99.90;;;;;;5067327;28;20527;-74
2022/04/14 05:15:44;;;;;;;34.83;20.95;;;12.60;99.90;;;;;;5032191;28;20365;-74
2022/04/14 05:18:10;;;;;;;35.95;21.40;;;12.60;99.90;;;;;;5050857;28;20025;-74
2022/04/14 05:20:36;;;;;;;37.58;21.90;;;12.60;99.90;;;;;;5048882;28;20032;-74
2022/04/14 05:23:02;;;;;;;35.70;22.00;;;12.70;99.90;;;;;;5064072;28;20028;-75
2022/04/14 05:25:29;;;;;;;37.50;21.73;;;12.80;99.90;;;;;;5044362;28;20040;-76
2022/04/14 05:27:55;;;;;;;35.53;21.00;;;12.80;99.90;;;;;;5061170;28;20111;-74
2022/04/14 05:30:21;;;;;;;37.22;22.98;;;12.80;99.90;;;;;;5049162;28;20610;-74
2022/04/14 05:32:46;;;;;;;35.42;20.75;;;12.80;99.90;;;;;;5037204;28;20119;-75
2022/04/14 05:35:12;;;;;;;33.20;21.27;;;12.90;99.90;;;;;;5040407;28;20024;-74
2022/04/14 05:37:38;;;;;;;38.67;22.67;;;12.90;99.90;;;;;;5051622;28;20040;-74
2022/04/14 05:40:05;;;;;;;37.58;21.30;;;12.90;99.90;;;;;;5071659;28;20036;-75
2022/04/14 05:42:30;;;;;;;38.35;22.92;;;12.90;99.90;;;;;;5036554;28;20938;-75
2022/04/14 05:44:56;;;;;;;37.75;21.95;;;12.90;99.90;;;;;;5052813;28;20115;-75
2022/04/14 05:47:25;;;;;;;42.35;23.25;;;12.80;99.90;;;;;;5070480;28;20031;-74
2022/04/14 05:49:52;;;;;;;38.15;21.75;;;12.70;99.90;;;;;;5069816;28;20496;-74
2022/04/14 05:52:17;;;;;;;39.42;23.63;;;12.80;99.90;;;;;;5068152;28;20032;-75
2022/04/14 05:54:46;;;;;;;40.35;21.70;;;12.70;99.90;;;;;;5065867;28;20025;-75
2022/04/14 05:57:13;;;;;;;39.83;23.90;;;12.80;99.90;;;;;;5050653;28;20205;-73
2022/04/14 05:59:39;;;;;;;39.85;23.70;;;12.80;99.90;;;;;;5039402;28;20036;-75
2022/04/14 06:02:05;;;;;;;38.05;21.55;;;12.80;99.90;;;;;;5058542;28;20581;-74
2022/04/14 06:04:31;;;;;;;37.58;21.73;;;12.80;99.90;;;;;;5048227;28;20047;-73
2022/04/14 06:06:57;;;;;;;37.40;21.35;;;12.80;99.90;;;;;;5070671;28;20166;-73
2022/04/14 06:09:22;;;;;;;40.88;24.40;;;12.90;99.90;;;;;;5045597;28;20112;-74
2022/04/14 06:11:48;;;;;;;37.35;22.38;;;12.80;99.90;;;;;;5056118;28;20233;-74
2022/04/14 06:14:14;;;;;;;36.83;21.83;;;12.80;99.90;;;;;;5065335;28;20077;-74
2022/04/14 06:16:39;;;;;;;35.05;20.88;;;13.00;99.90;;;;;;5061891;28;20024;-74
2022/04/14 06:19:05;;;;;;;36.22;22.73;;;13.00;99.90;;;;;;5038762;28;20021;-75
2022/04/14 06:21:31;;;;;;;32.15;21.77;;;13.00;99.90;;;;;;5062442;28;20558;-75
2022/04/14 06:23:57;;;;;;;36.92;22.15;;;13.10;99.90;;;;;;5069245;28;20036;-75
2022/04/14 06:26:23;;;;;;;36.20;21.17;;;13.10;99.90;;;;;;5069792;28;20085;-77
2022/04/14 06:28:48;;;;;;;33.97;20.58;;;13.10;99.90;;;;;;5053022;28;20037;-75
2022/04/14 06:31:15;;;;;;;33.60;22.15;;;13.20;99.90;;;;;;5063530;28;20464;-75
2022/04/14 06:33:41;;;;;;;39.35;23.73;;;13.20;99.90;;;;;;5062486;28;20434;-74
2022/04/14 06:36:07;;;;;;;34.95;21.95;;;13.10;99.90;;;;;;5046853;28;20032;-74
2022/04/14 06:38:32;;;;;;;37.42;22.23;;;13.10;99.90;;;;;;5049639;28;20089;-74
2022/04/14 06:40:58;;;;;;;37.70;23.50;;;13.10;99.90;;;;;;5054646;28;20077;-75
2022/04/14 06:43:24;;;;;;;38.15;22.27;;;13.20;99.90;;;;;;5062851;28;20163;-74
2022/04/14 06:45:51;;;;;;;36.22;22.67;;;13.10;99.90;;;;;;5064561;28;20025;-74
2022/04/14 06:48:17;;;;;;;39.38;23.30;;;13.20;99.90;;;;;;5037643;28;20062;-74
2022/04/14 06:50:43;;;;;;;34.00;19.85;;;13.20;99.90;;;;;;5059729;28;20028;-76
2022/04/14 06:53:08;;;;;;;34.83;21.27;;;13.20;99.90;;;;;;5030477;28;20831;-74
2022/04/14 06:55:36;;;;;;;34.22;20.20;;;13.20;99.90;;;;;;5050368;28;20024;-76
2022/04/14 06:58:02;;;;;;;38.42;23.10;;;13.20;99.90;;;;;;5059837;28;20484;-74
2022/04/14 07:00:29;;;;;;;34.08;21.27;;;13.20;99.90;;;;;;5047200;28;20036;-74
2022/04/14 07:02:55;;;;;;;35.75;20.95;;;13.20;99.90;;;;;;5050058;28;20040;-74
2022/04/14 07:05:25;;;;;;;35.50;21.40;;;13.30;99.90;;;;;;5050401;28;20035;-74
2022/04/14 07:07:51;;;;;;;29.45;20.35;;;13.40;99.90;;;;;;5052034;28;20037;-74
2022/04/14 07:10:17;;;;;;;31.17;21.15;;;13.40;99.90;;;;;;5037006;28;20025;-76
2022/04/14 07:12:45;;;;;;;30.38;20.42;;;13.50;99.90;;;;;;5063340;28;20031;-75
2022/04/14 07:15:11;;;;;;;29.85;19.40;;;13.50;99.90;;;;;;5070128;28;20492;-75
2022/04/14 07:17:37;;;;;;;34.13;22.45;;;13.50;99.90;;;;;;5051510;28;20206;-75
2022/04/14 07:20:05;;;;;;;32.65;19.88;;;13.40;99.90;;;;;;5065165;28;20033;-75
2022/04/14 07:22:40;;;;;;;30.55;19.33;;;13.50;99.90;;;;;;5047425;28;20033;-75
2022/04/14 07:25:06;;;;;;;28.60;19.95;;;13.50;99.90;;;;;;5039012;28;20025;-75
2022/04/14 07:27:32;;;;;;;34.53;20.13;;;13.50;99.90;;;;;;5049446;28;20028;-75
2022/04/14 07:29:57;;;;;;;29.95;19.27;;;13.50;99.90;;;;;;5053476;28;20024;-75
2022/04/14 07:32:23;;;;;;;30.42;19.70;;;13.70;99.90;;;;;;5067721;28;20020;-74
2022/04/14 07:34:49;;;;;;;28.85;19.48;;;13.70;99.90;;;;;;5067505;28;20025;-74
2022/04/14 07:37:15;;;;;;;31.55;20.60;;;13.80;99.90;;;;;;5041727;28;20025;-74
2022/04/14 07:39:41;;;;;;;29.67;20.83;;;13.70;99.90;;;;;;5046078;28;20043;-75
2022/04/14 07:42:06;;;;;;;31.73;20.92;;;13.80;99.90;;;;;;5050614;28;20028;-75
2022/04/14 07:44:32;;;;;;;31.77;21.45;;;13.80;99.90;;;;;;5065367;28;20102;-75
2022/04/14 07:46:59;;;;;;;29.40;21.27;;;13.80;99.90;;;;;;5064446;28;20033;-74
2022/04/14 07:49:27;;;;;;;31.60;21.10;;;13.80;99.90;;;;;;5068865;28;20426;-75
2022/04/14 07:51:55;;;;;;;33.15;21.08;;;13.80;99.90;;;;;;5063916;28;20103;-75
2022/04/14 07:54:22;;;;;;;29.98;21.45;;;13.80;99.90;;;;;;5048650;28;20028;-74
2022/04/14 07:56:47;;;;;;;32.65;21.48;;;13.90;99.90;;;;;;5060995;28;20117;-75
2022/04/14 07:59:13;;;;;;;34.42;22.42;;;14.00;99.90;;;;;;5053016;28;20083;-74
2022/04/14 08:01:39;;;;;;;30.23;19.45;;;14.00;99.90;;;;;;5051151;28;20539;-73
2022/04/14 08:04:05;;;;;;;31.98;20.85;;;14.00;99.90;;;;;;5051501;28;20537;-75
2022/04/14 08:06:31;;;;;;;37.22;22.70;;;14.10;99.90;;;;;;5049074;28;20111;-76
2022/04/14 08:08:57;;;;;;;33.55;23.52;;;14.10;99.90;;;;;;5049519;28;20493;-76
2022/04/14 08:11:23;;;;;;;31.23;21.65;;;14.10;99.90;;;;;;5040545;28;20502;-76
2022/04/14 08:13:49;;;;;;;42.17;26.77;;;14.20;99.90;;;;;;5018115;28;20036;-80
2022/04/14 08:16:16;;;;;;;39.33;26.00;;;14.20;99.90;;;;;;5076122;28;20057;-75
2022/04/14 08:18:42;;;;;;;41.10;26.17;;;14.30;99.90;;;;;;5032918;28;20029;-76
2022/04/14 08:21:08;;;;;;;40.97;23.55;;;14.30;99.90;;;;;;5053213;28;20036;-77
2022/04/14 08:23:39;;;;;;;31.80;22.52;;;14.30;99.90;;;;;;5049730;28;20027;-79
2022/04/14 08:26:08;;;;;;;31.95;22.85;;;14.30;99.90;;;;;;5040322;28;20028;-74
2022/04/14 08:28:34;;;;;;;32.90;22.73;;;14.50;99.90;;;;;;5064194;28;20085;-74
2022/04/14 08:31:01;;;;;;;33.17;22.17;;;14.50;99.90;;;;;;5048148;28;20032;-75
2022/04/14 08:33:27;;;;;;;38.22;22.42;;;14.40;99.90;;;;;;5081484;28;20021;-75
2022/04/14 08:35:54;;;;;;;30.65;20.23;;;14.10;99.90;;;;;;5048872;28;20548;-75
2022/04/14 08:38:21;;;;;;;35.15;24.58;;;14.10;99.90;;;;;;5049901;28;20773;-76
2022/04/14 08:40:49;;;;;;;31.65;21.45;;;14.10;99.90;;;;;;5037090;28;20079;-75
2022/04/14 08:43:21;;;;;;;32.47;20.88;;;14.10;99.90;;;;;;5059513;28;20025;-74
2022/04/14 08:45:50;;;;;;;33.85;21.60;;;14.20;99.90;;;;;;5025503;28;20111;-77
2022/04/14 08:48:20;;;;;;;30.52;20.55;;;14.20;99.90;;;;;;5048704;28;20438;-75
2022/04/14 08:50:50;;;;;;;31.77;21.63;;;14.30;99.90;;;;;;5053692;28;20021;-76
2022/04/14 08:53:18;;;;;;;31.23;20.70;;;14.20;99.90;;;;;;5046489;28;20028;-75
2022/04/14 08:56:07;;;;;;;31.13;20.48;;;14.20;99.90;;;;;;5019330;28;20111;-76
2022/04/14 08:58:35;;;;;;;29.77;20.17;;;14.20;99.90;;;;;;5063205;28;20062;-76
2022/04/14 09:01:01;;;;;;;33.25;21.05;;;14.40;99.90;;;;;;5044385;28;20550;-75
2022/04/14 09:03:28;;;;;;;33.53;21.20;;;14.40;99.90;;;;;;5027190;28;20119;-75
2022/04/14 09:05:55;;;;;;;24.73;18.50;;;14.50;99.90;;;;;;5048373;28;20466;-75
2022/04/14 09:08:24;;;;;;;27.55;20.02;;;14.60;99.90;;;;;;5046744;28;20095;-75
2022/04/14 09:10:50;;;;;;;30.15;19.58;;;14.60;99.90;;;;;;5045382;28;20418;-75
2022/04/14 09:13:17;;;;;;;29.25;20.40;;;14.60;99.90;;;;;;5046080;28;20112;-75
2022/04/14 09:15:43;;;;;;;28.25;18.77;;;14.50;99.90;;;;;;5044732;28;20055;-75
2022/04/14 09:18:09;;;;;;;33.13;20.67;;;14.50;99.90;;;;;;5044911;28;20141;-75
2022/04/14 09:20:37;;;;;;;29.58;19.77;;;14.60;99.90;;;;;;5055218;28;20029;-74
2022/04/14 09:23:18;;;;;;;29.25;20.55;;;14.70;99.90;;;;;;5064021;28;20037;-74
2022/04/14 09:25:44;;;;;;;29.10;19.35;;;14.90;99.90;;;;;;5046817;28;20028;-74
2022/04/14 09:28:15;;;;;;;28.50;17.67;;;14.80;99.90;;;;;;5048692;28;20526;-75
2022/04/14 09:31:02;;;;;;;26.98;19.77;;;14.90;99.90;;;;;;5066588;28;20036;-73
2022/04/14 09:33:29;;;;;;;30.33;17.73;;;15.00;99.90;;;;;;5066460;28;20074;-74
2022/04/14 09:36:07;;;;;;;22.73;16.42;;;14.90;99.90;;;;;;5062539;28;20104;-76
2022/04/14 09:38:52;;;;;;;23.98;16.00;;;15.00;99.90;;;;;;5062818;28;20113;-74
2022/04/14 09:41:34;;;;;;;25.88;17.02;;;15.00;99.90;;;;;;5049090;28;20028;-75
2022/04/14 09:44:08;;;;;;;22.35;16.90;;;15.20;99.90;;;;;;5065063;28;20035;-74
2022/04/14 09:46:35;;;;;;;21.35;15.95;;;15.30;99.90;;;;;;5044504;28;20063;-74
2022/04/14 09:49:07;;;;;;;20.10;14.32;;;15.40;99.90;;;;;;5041102;28;20479;-74
2022/04/14 09:51:41;;;;;;;22.67;16.27;;;15.40;99.90;;;;;;5046940;28;20043;-74
2022/04/14 09:54:15;;;;;;;21.83;15.77;;;15.50;99.90;;;;;;5049825;28;20028;-75
2022/04/14 09:56:57;;;;;;;21.95;15.98;;;15.50;99.90;;;;;;5034504;28;20063;-74
2022/04/14 09:59:28;;;;;;;26.13;16.90;;;15.50;99.90;;;;;;5057390;28;20033;-75
2022/04/14 10:02:13;;;;;;;24.50;16.15;;;15.50;99.90;;;;;;5057983;28;20036;-74
2022/04/14 10:04:49;;;;;;;24.25;17.40;;;15.40;99.90;;;;;;5057133;28;20029;-73
2022/04/14 10:07:17;;;;;;;25.40;18.58;;;15.20;99.90;;;;;;5048384;28;20580;-74
2022/04/14 10:09:45;;;;;;;21.58;16.30;;;15.10;99.90;;;;;;5045789;28;20032;-73
2022/04/14 10:12:20;;;;;;;23.88;17.40;;;15.10;99.90;;;;;;5045221;28;20029;-74
2022/04/14 10:15:05;;;;;;;23.10;15.77;;;15.00;99.90;;;;;;5042373;28;20075;-74
2022/04/14 10:17:33;;;;;;;22.52;16.83;;;15.00;99.90;;;;;;5046124;28;20062;-74
2022/04/14 10:19:59;;;;;;;22.65;15.48;;;15.00;99.90;;;;;;5063059;28;20554;-74
2022/04/14 10:22:26;;;;;;;22.00;16.15;;;15.00;99.90;;;;;;5036521;28;20112;-74
2022/04/14 10:24:56;;;;;;;20.73;15.65;;;15.10;99.90;;;;;;5038658;28;20043;-75
2022/04/14 10:27:22;;;;;;;21.52;16.25;;;15.20;99.90;;;;;;5067275;28;20032;-74
2022/04/14 10:29:49;;;;;;;21.15;14.77;;;15.30;99.90;;;;;;5051390;28;20083;-74
2022/04/14 10:32:15;;;;;;;24.52;16.52;;;15.50;99.90;;;;;;5041450;28;20035;-74
2022/04/14 10:34:41;;;;;;;22.35;15.60;;;15.50;99.90;;;;;;5051433;28;20028;-75
2022/04/14 10:37:16;;;;;;;24.08;16.05;;;15.40;99.90;;;;;;5062388;28;20036;-75
2022/04/14 10:39:46;;;;;;;19.40;15.60;;;15.50;99.90;;;;;;5064887;28;20266;-74
2022/04/14 10:42:15;;;;;;;21.65;14.98;;;15.60;99.90;;;;;;5055806;28;20028;-72
2022/04/14 10:44:48;;;;;;;20.65;14.63;;;15.80;99.90;;;;;;5041658;28;20129;-74
2022/04/14 10:47:42;;;;;;;20.17;14.10;;;16.00;99.90;;;;;;5043995;28;20427;-71
2022/04/14 10:50:31;;;;;;;20.50;14.70;;;16.10;99.90;;;;;;5084144;28;20036;-72
2022/04/14 10:53:18;;;;;;;19.40;14.10;;;16.20;99.90;;;;;;5039012;28;20443;-71
2022/04/14 10:55:48;;;;;;;19.05;14.30;;;16.30;99.90;;;;;;5055854;28;20028;-73
2022/04/14 10:58:38;;;;;;;17.52;13.68;;;16.50;99.90;;;;;;5040437;28;20029;-72
2022/04/14 11:01:04;;;;;;;16.42;12.15;;;16.80;99.90;;;;;;5029890;28;20044;-79
2022/04/14 11:03:52;;;;;;;14.88;11.30;;;17.10;99.90;;;;;;5064364;28;20040;-75
2022/04/14 11:06:47;;;;;;;17.20;12.05;;;17.50;99.90;;;;;;5051513;28;20024;-75
2022/04/14 11:09:50;;;;;;;12.70;9.95;;;18.40;99.90;;;;;;5052104;28;20071;-76
2022/04/14 11:12:40;;;;;;;14.57;11.18;;;19.00;99.90;;;;;;5059817;28;20020;-74
2022/04/14 11:15:12;;;;;;;12.63;9.40;;;19.10;99.90;;;;;;5066941;28;20037;-77
2022/04/14 11:17:40;;;;;;;11.02;8.00;;;20.20;99.10;;;;;;5065228;28;20422;-75
2022/04/14 11:20:22;;;;;;;11.25;8.35;;;20.90;98.40;;;;;;5066253;28;20024;-75
2022/04/14 11:23:13;;;;;;;8.40;7.18;;;20.30;93.70;;;;;;5052423;28;20037;-74
2022/04/14 11:25:38;;;;;;;11.30;6.97;;;19.70;95.90;;;;;;5052473;28;20473;-74
2022/04/14 11:28:24;;;;;;;10.65;7.32;;;19.20;98.30;;;;;;5042948;28;20040;-73
2022/04/14 11:30:52;;;;;;;10.52;7.65;;;18.60;99.60;;;;;;5052825;28;20021;-71
2022/04/14 11:33:33;;;;;;;8.85;6.57;;;18.30;99.90;;;;;;5052515;28;20028;-73
2022/04/14 11:36:12;;;;;;;11.25;8.25;;;18.00;99.90;;;;;;5040643;28;20029;-75
2022/04/14 11:39:04;;;;;;;12.65;7.82;;;17.80;99.90;;;;;;5056663;28;20112;-75
2022/04/14 11:41:44;;;;;;;9.20;6.35;;;17.50;99.90;;;;;;5057436;28;20574;-74
2022/04/14 11:44:18;;;;;;;8.20;5.65;;;17.20;99.90;;;;;;5049819;28;20040;-75
2022/04/14 11:46:47;;;;;;;8.27;5.80;;;17.20;99.90;;;;;;5057264;28;20036;-77
2022/04/14 11:49:21;;;;;;;10.50;6.13;;;18.10;99.90;;;;;;5059439;28;20397;-79
2022/04/14 11:51:52;;;;;;;6.88;5.38;;;19.20;97.80;;;;;;5052592;28;21788;-81
2022/04/14 11:54:27;;;;;;;10.70;7.53;;;19.60;96.90;;;;;;5043099;28;20086;-77
2022/04/14 11:57:00;;;;;;;7.97;5.95;;;20.20;95.10;;;;;;5032168;28;20031;-71
2022/04/14 11:59:37;;;;;;;8.55;5.70;;;20.50;90.20;;;;;;5057146;28;20041;-71
2022/04/14 12:02:07;;;;;;;7.40;5.43;;;20.10;91.90;;;;;;5042560;28;20024;-71
2022/04/14 12:04:43;;;;;;;9.48;6.38;;;19.90;94.50;;;;;;5063092;28;20448;-72
2022/04/14 12:07:09;;;;;;;12.27;6.68;;;19.90;93.70;;;;;;5045576;28;20044;-72
2022/04/14 12:09:40;;;;;;;9.27;5.75;;;19.70;90.50;;;;;;5063158;28;20044;-78
2022/04/14 12:12:19;;;;;;;10.23;6.32;;;19.60;92.50;;;;;;5082638;28;20496;-73
2022/04/14 12:14:48;;;;;;;9.73;5.97;;;19.50;91.80;;;;;;5065021;28;20033;-71
2022/04/14 12:17:22;;;;;;;8.20;6.22;;;19.20;94.40;;;;;;5051027;28;20043;-72
2022/04/14 12:19:55;;;;;;;257.50;191.65;;;18.80;96.90;;;;;;5042636;28;20529;-72
2022/04/14 12:22:23;;;;;;;85.50;56.05;;;18.40;98.20;;;;;;5049080;28;20074;-73
2022/04/14 12:24:55;;;;;;;15.23;10.43;;;18.10;97.40;;;;;;5044933;28;20040;-73
2022/04/14 12:27:23;;;;;;;45.50;31.17;;;17.80;97.70;;;;;;5075890;28;20078;-73
2022/04/14 12:29:56;;;;;;;9.82;6.47;;;17.50;99.20;;;;;;5060191;28;20033;-74
2022/04/14 12:32:27;;;;;;;59.00;41.10;;;17.30;98.50;;;;;;5042850;28;20032;-73
2022/04/14 12:34:53;;;;;;;9.98;7.63;;;17.10;99.30;;;;;;5059062;28;20412;-73